sensor_id;sensor_type;location;lat;lon;timestamp;P1;durP1;ratioP1;P2;durP2;ratioP2
79261;SDS011;68699;48.220;16.358;2023-05-10T00:01:10;4.10;;;2.87;;
79261;SDS011;68699;48.220;16.358;2023-05-10T00:03:36;3.57;;;3.27;;
79261;SDS011;68699;48.220;16.358;2023-05-10T00:06:02;3.47;;;3.17;;
79261;SDS011;68699;48.220;16.358;2023-05-10T00:08:28;4.80;;;3.20;;
79261;SDS011;68699;48.220;16.358;2023-05-10T00:10:54;4.00;;;3.60;;
79261;SDS011;68699;48.220;16.358;2023-05-10T00:13:20;4.10;;;3.23;;
79261;SDS011;68699;48.220;16.358;2023-05-10T00:15:47;3.17;;;2.87;;
79261;SDS011;68699;48.220;16.358;2023-05-10T00:18:13;4.67;;;3.70;;
79261;SDS011;68699;48.220;16.358;2023-05-10T00:20:39;4.57;;;3.37;;
79261;SDS011;68699;48.220;16.358;2023-05-10T00:23:05;3.27;;;2.90;;
79261;SDS011;68699;48.220;16.358;2023-05-10T00:25:31;3.47;;;3.17;;
79261;SDS011;68699;48.220;16.358;2023-05-10T00:27:57;3.70;;;3.40;;
79261;SDS011;68699;48.220;16.358;2023-05-10T00:30:23;4.23;;;3.13;;
79261;SDS011;68699;48.220;16.358;2023-05-10T00:32:49;4.77;;;2.93;;
79261;SDS011;68699;48.220;16.358;2023-05-10T00:35:16;4.73;;;3.40;;
79261;SDS011;68699;48.220;16.358;2023-05-10T00:37:42;3.13;;;2.83;;
79261;SDS011;68699;48.220;16.358;2023-05-10T00:40:08;3.90;;;3.13;;
79261;SDS011;68699;48.220;16.358;2023-05-10T00:42:35;3.07;;;2.87;;
79261;SDS011;68699;48.220;16.358;2023-05-10T00:45:01;3.33;;;2.70;;
79261;SDS011;68699;48.220;16.358;2023-05-10T00:47:27;3.77;;;3.47;;
79261;SDS011;68699;48.220;16.358;2023-05-10T00:49:53;4.13;;;2.90;;
79261;SDS011;68699;48.220;16.358;2023-05-10T00:52:19;4.87;;;3.13;;
79261;SDS011;68699;48.220;16.358;2023-05-10T00:54:45;4.03;;;3.00;;
79261;SDS011;68699;48.220;16.358;2023-05-10T00:57:12;3.50;;;3.20;;
79261;SDS011;68699;48.220;16.358;2023-05-10T00:59:38;4.13;;;2.80;;
79261;SDS011;68699;48.220;16.358;2023-05-10T01:02:04;3.20;;;2.90;;
79261;SDS011;68699;48.220;16.358;2023-05-10T01:04:31;3.93;;;3.33;;
79261;SDS011;68699;48.220;16.358;2023-05-10T01:06:57;4.47;;;3.07;;
79261;SDS011;68699;48.220;16.358;2023-05-10T01:09:24;3.27;;;3.07;;
79261;SDS011;68699;48.220;16.358;2023-05-10T01:11:51;3.10;;;2.90;;
79261;SDS011;68699;48.220;16.358;2023-05-10T01:14:18;3.40;;;3.10;;
79261;SDS011;68699;48.220;16.358;2023-05-10T01:16:44;5.23;;;3.30;;
79261;SDS011;68699;48.220;16.358;2023-05-10T01:19:22;3.97;;;3.13;;
79261;SDS011;68699;48.220;16.358;2023-05-10T01:21:49;5.47;;;3.33;;
79261;SDS011;68699;48.220;16.358;2023-05-10T01:26:59;4.17;;;3.23;;
79261;SDS011;68699;48.220;16.358;2023-05-10T01:32:16;3.77;;;3.20;;
79261;SDS011;68699;48.220;16.358;2023-05-10T01:34:48;3.97;;;3.10;;
79261;SDS011;68699;48.220;16.358;2023-05-10T01:37:19;4.07;;;3.43;;
79261;SDS011;68699;48.220;16.358;2023-05-10T01:39:47;4.03;;;3.60;;
79261;SDS011;68699;48.220;16.358;2023-05-10T01:42:16;4.53;;;3.80;;
79261;SDS011;68699;48.220;16.358;2023-05-10T01:44:49;3.17;;;2.90;;
79261;SDS011;68699;48.220;16.358;2023-05-10T01:47:19;3.70;;;3.40;;
79261;SDS011;68699;48.220;16.358;2023-05-10T01:49:47;3.60;;;3.30;;
79261;SDS011;68699;48.220;16.358;2023-05-10T01:52:15;3.40;;;3.10;;
79261;SDS011;68699;48.220;16.358;2023-05-10T01:54:53;3.77;;;3.47;;
79261;SDS011;68699;48.220;16.358;2023-05-10T01:57:21;3.33;;;3.10;;
79261;SDS011;68699;48.220;16.358;2023-05-10T01:59:49;3.70;;;3.30;;
79261;SDS011;68699;48.220;16.358;2023-05-10T02:02:15;3.63;;;3.33;;
79261;SDS011;68699;48.220;16.358;2023-05-10T02:04:42;4.87;;;3.63;;
79261;SDS011;68699;48.220;16.358;2023-05-10T02:07:09;4.57;;;3.53;;
79261;SDS011;68699;48.220;16.358;2023-05-10T02:09:36;4.30;;;3.50;;
79261;SDS011;68699;48.220;16.358;2023-05-10T02:12:02;4.43;;;3.60;;
79261;SDS011;68699;48.220;16.358;2023-05-10T02:14:30;4.07;;;3.50;;
79261;SDS011;68699;48.220;16.358;2023-05-10T02:16:58;3.47;;;3.27;;
79261;SDS011;68699;48.220;16.358;2023-05-10T02:19:25;3.70;;;3.40;;
79261;SDS011;68699;48.220;16.358;2023-05-10T02:21:51;4.10;;;3.80;;
79261;SDS011;68699;48.220;16.358;2023-05-10T02:24:18;5.10;;;3.70;;
79261;SDS011;68699;48.220;16.358;2023-05-10T02:26:45;4.83;;;3.67;;
79261;SDS011;68699;48.220;16.358;2023-05-10T02:29:12;3.80;;;3.50;;
79261;SDS011;68699;48.220;16.358;2023-05-10T02:31:39;4.20;;;3.80;;
79261;SDS011;68699;48.220;16.358;2023-05-10T02:34:08;4.13;;;3.73;;
79261;SDS011;68699;48.220;16.358;2023-05-10T02:36:35;4.07;;;3.70;;
79261;SDS011;68699;48.220;16.358;2023-05-10T02:39:02;4.53;;;3.40;;
79261;SDS011;68699;48.220;16.358;2023-05-10T02:41:28;3.90;;;3.47;;
79261;SDS011;68699;48.220;16.358;2023-05-10T02:43:57;4.17;;;3.77;;
79261;SDS011;68699;48.220;16.358;2023-05-10T02:46:25;4.03;;;3.63;;
79261;SDS011;68699;48.220;16.358;2023-05-10T02:48:51;4.17;;;3.67;;
79261;SDS011;68699;48.220;16.358;2023-05-10T02:51:18;4.30;;;3.90;;
79261;SDS011;68699;48.220;16.358;2023-05-10T02:53:46;5.30;;;4.10;;
79261;SDS011;68699;48.220;16.358;2023-05-10T02:56:16;4.00;;;3.70;;
79261;SDS011;68699;48.220;16.358;2023-05-10T02:58:45;4.17;;;3.73;;
79261;SDS011;68699;48.220;16.358;2023-05-10T03:01:11;4.40;;;4.00;;
79261;SDS011;68699;48.220;16.358;2023-05-10T03:03:37;4.17;;;3.77;;
79261;SDS011;68699;48.220;16.358;2023-05-10T03:06:03;4.43;;;4.03;;
79261;SDS011;68699;48.220;16.358;2023-05-10T03:08:30;5.43;;;4.13;;
79261;SDS011;68699;48.220;16.358;2023-05-10T03:21:04;5.13;;;4.10;;
79261;SDS011;68699;48.220;16.358;2023-05-10T03:25:57;5.13;;;4.20;;
79261;SDS011;68699;48.220;16.358;2023-05-10T03:28:23;4.43;;;3.97;;
79261;SDS011;68699;48.220;16.358;2023-05-10T03:30:50;4.50;;;4.10;;
79261;SDS011;68699;48.220;16.358;2023-05-10T03:33:18;5.33;;;3.90;;
79261;SDS011;68699;48.220;16.358;2023-05-10T03:35:44;4.70;;;4.10;;
79261;SDS011;68699;48.220;16.358;2023-05-10T03:38:11;4.50;;;3.97;;
79261;SDS011;68699;48.220;16.358;2023-05-10T03:40:37;5.47;;;3.90;;
79261;SDS011;68699;48.220;16.358;2023-05-10T03:43:03;4.27;;;3.50;;
79261;SDS011;68699;48.220;16.358;2023-05-10T03:45:29;5.33;;;4.00;;
79261;SDS011;68699;48.220;16.358;2023-05-10T03:47:56;5.20;;;4.27;;
79261;SDS011;68699;48.220;16.358;2023-05-10T03:50:22;5.63;;;4.30;;
79261;SDS011;68699;48.220;16.358;2023-05-10T03:52:48;4.37;;;3.97;;
79261;SDS011;68699;48.220;16.358;2023-05-10T03:55:14;5.57;;;4.10;;
79261;SDS011;68699;48.220;16.358;2023-05-10T03:57:41;5.00;;;4.07;;
79261;SDS011;68699;48.220;16.358;2023-05-10T04:00:07;4.67;;;4.13;;
79261;SDS011;68699;48.220;16.358;2023-05-10T04:02:33;4.23;;;3.87;;
79261;SDS011;68699;48.220;16.358;2023-05-10T04:04:59;4.30;;;3.87;;
79261;SDS011;68699;48.220;16.358;2023-05-10T04:07:25;4.20;;;3.80;;
79261;SDS011;68699;48.220;16.358;2023-05-10T04:09:51;6.03;;;4.17;;
79261;SDS011;68699;48.220;16.358;2023-05-10T04:12:17;4.30;;;3.90;;
79261;SDS011;68699;48.220;16.358;2023-05-10T04:14:43;4.50;;;4.10;;
79261;SDS011;68699;48.220;16.358;2023-05-10T04:17:09;4.50;;;4.10;;
79261;SDS011;68699;48.220;16.358;2023-05-10T04:19:35;4.70;;;4.30;;
79261;SDS011;68699;48.220;16.358;2023-05-10T04:22:03;5.90;;;4.40;;
79261;SDS011;68699;48.220;16.358;2023-05-10T04:24:29;4.73;;;4.00;;
79261;SDS011;68699;48.220;16.358;2023-05-10T04:26:55;4.30;;;3.90;;
79261;SDS011;68699;48.220;16.358;2023-05-10T04:29:21;4.90;;;4.50;;
79261;SDS011;68699;48.220;16.358;2023-05-10T04:31:47;5.33;;;4.07;;
79261;SDS011;68699;48.220;16.358;2023-05-10T04:34:13;4.30;;;3.80;;
79261;SDS011;68699;48.220;16.358;2023-05-10T04:36:39;4.70;;;4.17;;
79261;SDS011;68699;48.220;16.358;2023-05-10T04:39:05;4.30;;;3.90;;
79261;SDS011;68699;48.220;16.358;2023-05-10T04:41:32;4.67;;;4.00;;
79261;SDS011;68699;48.220;16.358;2023-05-10T04:43:58;4.57;;;4.10;;
79261;SDS011;68699;48.220;16.358;2023-05-10T04:46:24;5.10;;;4.33;;
79261;SDS011;68699;48.220;16.358;2023-05-10T04:48:50;7.80;;;4.83;;
79261;SDS011;68699;48.220;16.358;2023-05-10T04:51:16;4.67;;;4.07;;
79261;SDS011;68699;48.220;16.358;2023-05-10T04:53:42;6.23;;;4.30;;
79261;SDS011;68699;48.220;16.358;2023-05-10T04:56:09;5.10;;;4.60;;
79261;SDS011;68699;48.220;16.358;2023-05-10T04:58:35;4.73;;;4.33;;
79261;SDS011;68699;48.220;16.358;2023-05-10T05:01:05;5.43;;;4.23;;
79261;SDS011;68699;48.220;16.358;2023-05-10T05:03:32;4.47;;;4.17;;
79261;SDS011;68699;48.220;16.358;2023-05-10T05:05:58;6.20;;;4.37;;
79261;SDS011;68699;48.220;16.358;2023-05-10T05:08:24;4.87;;;4.47;;
79261;SDS011;68699;48.220;16.358;2023-05-10T05:10:50;4.87;;;4.43;;
79261;SDS011;68699;48.220;16.358;2023-05-10T05:13:17;5.07;;;4.57;;
79261;SDS011;68699;48.220;16.358;2023-05-10T05:15:43;6.30;;;4.63;;
79261;SDS011;68699;48.220;16.358;2023-05-10T05:18:09;5.20;;;4.70;;
79261;SDS011;68699;48.220;16.358;2023-05-10T05:20:35;6.27;;;4.80;;
79261;SDS011;68699;48.220;16.358;2023-05-10T05:23:01;5.90;;;4.70;;
79261;SDS011;68699;48.220;16.358;2023-05-10T05:25:27;4.93;;;4.27;;
79261;SDS011;68699;48.220;16.358;2023-05-10T05:27:53;4.53;;;4.13;;
79261;SDS011;68699;48.220;16.358;2023-05-10T05:30:19;6.13;;;4.40;;
79261;SDS011;68699;48.220;16.358;2023-05-10T05:32:45;5.17;;;4.53;;
79261;SDS011;68699;48.220;16.358;2023-05-10T05:35:14;4.83;;;4.40;;
79261;SDS011;68699;48.220;16.358;2023-05-10T05:37:41;5.07;;;4.37;;
79261;SDS011;68699;48.220;16.358;2023-05-10T05:40:07;4.87;;;4.40;;
79261;SDS011;68699;48.220;16.358;2023-05-10T05:42:33;5.33;;;4.60;;
79261;SDS011;68699;48.220;16.358;2023-05-10T05:44:59;5.27;;;4.40;;
79261;SDS011;68699;48.220;16.358;2023-05-10T05:47:25;5.03;;;4.20;;
79261;SDS011;68699;48.220;16.358;2023-05-10T05:49:51;6.53;;;4.37;;
79261;SDS011;68699;48.220;16.358;2023-05-10T05:52:17;5.17;;;4.07;;
79261;SDS011;68699;48.220;16.358;2023-05-10T05:54:43;5.90;;;4.50;;
79261;SDS011;68699;48.220;16.358;2023-05-10T05:57:09;5.57;;;4.20;;
79261;SDS011;68699;48.220;16.358;2023-05-10T05:59:36;5.77;;;4.53;;
79261;SDS011;68699;48.220;16.358;2023-05-10T06:02:06;6.30;;;4.00;;
79261;SDS011;68699;48.220;16.358;2023-05-10T06:04:32;5.27;;;4.17;;
79261;SDS011;68699;48.220;16.358;2023-05-10T06:06:58;4.27;;;3.70;;
79261;SDS011;68699;48.220;16.358;2023-05-10T06:09:24;6.67;;;4.37;;
79261;SDS011;68699;48.220;16.358;2023-05-10T06:11:50;5.93;;;4.23;;
79261;SDS011;68699;48.220;16.358;2023-05-10T06:14:16;4.30;;;3.90;;
79261;SDS011;68699;48.220;16.358;2023-05-10T06:16:42;4.80;;;3.93;;
79261;SDS011;68699;48.220;16.358;2023-05-10T06:19:08;4.27;;;3.87;;
79261;SDS011;68699;48.220;16.358;2023-05-10T06:21:34;4.20;;;3.77;;
79261;SDS011;68699;48.220;16.358;2023-05-10T06:24:00;8.63;;;4.60;;
79261;SDS011;68699;48.220;16.358;2023-05-10T06:26:27;5.13;;;4.53;;
79261;SDS011;68699;48.220;16.358;2023-05-10T06:28:53;4.60;;;4.20;;
79261;SDS011;68699;48.220;16.358;2023-05-10T06:31:19;4.33;;;3.93;;
79261;SDS011;68699;48.220;16.358;2023-05-10T06:33:45;5.67;;;3.80;;
79261;SDS011;68699;48.220;16.358;2023-05-10T06:36:12;6.03;;;4.43;;
79261;SDS011;68699;48.220;16.358;2023-05-10T06:38:38;5.63;;;4.10;;
79261;SDS011;68699;48.220;16.358;2023-05-10T06:41:04;6.90;;;4.13;;
79261;SDS011;68699;48.220;16.358;2023-05-10T06:43:30;4.90;;;3.70;;
79261;SDS011;68699;48.220;16.358;2023-05-10T06:45:56;5.90;;;4.13;;
79261;SDS011;68699;48.220;16.358;2023-05-10T06:48:25;5.83;;;3.80;;
79261;SDS011;68699;48.220;16.358;2023-05-10T06:50:51;4.23;;;3.60;;
79261;SDS011;68699;48.220;16.358;2023-05-10T06:53:17;4.97;;;3.90;;
79261;SDS011;68699;48.220;16.358;2023-05-10T06:55:43;5.60;;;3.70;;
79261;SDS011;68699;48.220;16.358;2023-05-10T06:58:09;6.30;;;3.80;;
79261;SDS011;68699;48.220;16.358;2023-05-10T07:00:36;4.43;;;3.53;;
79261;SDS011;68699;48.220;16.358;2023-05-10T07:03:05;4.17;;;3.80;;
79261;SDS011;68699;48.220;16.358;2023-05-10T07:05:31;8.87;;;3.83;;
79261;SDS011;68699;48.220;16.358;2023-05-10T07:07:57;12.10;;;4.63;;
79261;SDS011;68699;48.220;16.358;2023-05-10T07:10:23;4.90;;;4.17;;
79261;SDS011;68699;48.220;16.358;2023-05-10T07:12:49;6.63;;;3.87;;
79261;SDS011;68699;48.220;16.358;2023-05-10T07:15:15;5.73;;;4.00;;
79261;SDS011;68699;48.220;16.358;2023-05-10T07:17:41;6.97;;;3.87;;
79261;SDS011;68699;48.220;16.358;2023-05-10T07:20:08;4.43;;;4.03;;
79261;SDS011;68699;48.220;16.358;2023-05-10T07:22:34;4.30;;;3.90;;
79261;SDS011;68699;48.220;16.358;2023-05-10T07:25:00;4.53;;;4.00;;
79261;SDS011;68699;48.220;16.358;2023-05-10T07:27:26;4.90;;;4.00;;
79261;SDS011;68699;48.220;16.358;2023-05-10T07:29:52;4.23;;;3.90;;
79261;SDS011;68699;48.220;16.358;2023-05-10T07:32:18;4.40;;;4.00;;
79261;SDS011;68699;48.220;16.358;2023-05-10T07:34:44;4.47;;;4.07;;
79261;SDS011;68699;48.220;16.358;2023-05-10T07:37:10;4.70;;;4.10;;
79261;SDS011;68699;48.220;16.358;2023-05-10T07:39:36;4.90;;;4.37;;
79261;SDS011;68699;48.220;16.358;2023-05-10T07:42:02;5.97;;;3.50;;
79261;SDS011;68699;48.220;16.358;2023-05-10T07:44:28;4.80;;;4.30;;
79261;SDS011;68699;48.220;16.358;2023-05-10T07:46:54;4.40;;;4.00;;
79261;SDS011;68699;48.220;16.358;2023-05-10T07:49:20;4.63;;;4.23;;
79261;SDS011;68699;48.220;16.358;2023-05-10T07:51:46;7.30;;;4.50;;
79261;SDS011;68699;48.220;16.358;2023-05-10T07:54:13;7.20;;;4.03;;
79261;SDS011;68699;48.220;16.358;2023-05-10T07:56:39;5.37;;;4.70;;
79261;SDS011;68699;48.220;16.358;2023-05-10T07:59:10;4.80;;;4.30;;
79261;SDS011;68699;48.220;16.358;2023-05-10T08:01:40;5.23;;;4.23;;
79261;SDS011;68699;48.220;16.358;2023-05-10T08:04:06;5.13;;;4.63;;
79261;SDS011;68699;48.220;16.358;2023-05-10T08:06:32;6.43;;;4.67;;
79261;SDS011;68699;48.220;16.358;2023-05-10T08:08:58;5.40;;;4.87;;
79261;SDS011;68699;48.220;16.358;2023-05-10T08:11:24;5.00;;;4.50;;
79261;SDS011;68699;48.220;16.358;2023-05-10T08:13:50;4.80;;;4.13;;
79261;SDS011;68699;48.220;16.358;2023-05-10T08:16:17;4.63;;;4.00;;
79261;SDS011;68699;48.220;16.358;2023-05-10T08:18:43;8.00;;;4.73;;
79261;SDS011;68699;48.220;16.358;2023-05-10T08:21:10;4.90;;;4.30;;
79261;SDS011;68699;48.220;16.358;2023-05-10T08:23:36;4.30;;;3.87;;
79261;SDS011;68699;48.220;16.358;2023-05-10T08:26:02;4.63;;;4.17;;
79261;SDS011;68699;48.220;16.358;2023-05-10T08:28:29;4.40;;;4.00;;
79261;SDS011;68699;48.220;16.358;2023-05-10T08:30:55;5.03;;;3.70;;
79261;SDS011;68699;48.220;16.358;2023-05-10T08:33:21;3.90;;;3.60;;
79261;SDS011;68699;48.220;16.358;2023-05-10T08:35:47;4.77;;;3.90;;
79261;SDS011;68699;48.220;16.358;2023-05-10T08:38:13;4.17;;;3.53;;
79261;SDS011;68699;48.220;16.358;2023-05-10T08:40:40;4.77;;;3.87;;
79261;SDS011;68699;48.220;16.358;2023-05-10T08:43:08;4.43;;;3.80;;
79261;SDS011;68699;48.220;16.358;2023-05-10T08:45:37;4.87;;;3.50;;
79261;SDS011;68699;48.220;16.358;2023-05-10T08:48:07;4.40;;;3.07;;
79261;SDS011;68699;48.220;16.358;2023-05-10T08:50:35;4.07;;;3.37;;
79261;SDS011;68699;48.220;16.358;2023-05-10T08:53:04;3.90;;;3.00;;
79261;SDS011;68699;48.220;16.358;2023-05-10T08:55:30;3.97;;;3.10;;
79261;SDS011;68699;48.220;16.358;2023-05-10T08:57:58;4.27;;;2.90;;
79261;SDS011;68699;48.220;16.358;2023-05-10T09:00:24;3.40;;;2.70;;
79261;SDS011;68699;48.220;16.358;2023-05-10T09:02:50;3.10;;;2.90;;
79261;SDS011;68699;48.220;16.358;2023-05-10T09:05:16;3.43;;;2.80;;
79261;SDS011;68699;48.220;16.358;2023-05-10T09:07:42;3.90;;;3.20;;
79261;SDS011;68699;48.220;16.358;2023-05-10T09:10:09;3.33;;;3.03;;
79261;SDS011;68699;48.220;16.358;2023-05-10T09:12:36;3.53;;;2.60;;
79261;SDS011;68699;48.220;16.358;2023-05-10T09:15:02;2.67;;;2.47;;
79261;SDS011;68699;48.220;16.358;2023-05-10T09:17:29;3.50;;;2.50;;
79261;SDS011;68699;48.220;16.358;2023-05-10T09:20:02;4.23;;;2.90;;
79261;SDS011;68699;48.220;16.358;2023-05-10T09:22:32;2.70;;;2.50;;
79261;SDS011;68699;48.220;16.358;2023-05-10T09:25:08;2.50;;;2.20;;
79261;SDS011;68699;48.220;16.358;2023-05-10T09:27:35;2.07;;;1.97;;
79261;SDS011;68699;48.220;16.358;2023-05-10T09:30:03;3.20;;;2.10;;
79261;SDS011;68699;48.220;16.358;2023-05-10T09:32:37;2.63;;;1.87;;
79261;SDS011;68699;48.220;16.358;2023-05-10T09:35:07;2.30;;;1.97;;
79261;SDS011;68699;48.220;16.358;2023-05-10T09:37:33;2.20;;;2.00;;
79261;SDS011;68699;48.220;16.358;2023-05-10T09:39:59;1.70;;;1.60;;
79261;SDS011;68699;48.220;16.358;2023-05-10T09:42:25;1.80;;;1.70;;
79261;SDS011;68699;48.220;16.358;2023-05-10T09:44:51;2.60;;;1.80;;
79261;SDS011;68699;48.220;16.358;2023-05-10T09:47:17;2.10;;;1.60;;
79261;SDS011;68699;48.220;16.358;2023-05-10T09:49:44;1.60;;;1.50;;
79261;SDS011;68699;48.220;16.358;2023-05-10T09:52:15;1.60;;;1.50;;
79261;SDS011;68699;48.220;16.358;2023-05-10T09:54:44;1.60;;;1.50;;
79261;SDS011;68699;48.220;16.358;2023-05-10T09:57:18;6.13;;;1.90;;
79261;SDS011;68699;48.220;16.358;2023-05-10T09:59:46;1.73;;;1.63;;
79261;SDS011;68699;48.220;16.358;2023-05-10T10:02:12;3.73;;;1.60;;
79261;SDS011;68699;48.220;16.358;2023-05-10T10:04:39;2.27;;;1.80;;
79261;SDS011;68699;48.220;16.358;2023-05-10T10:07:05;1.83;;;1.70;;
79261;SDS011;68699;48.220;16.358;2023-05-10T10:09:32;2.70;;;1.77;;
79261;SDS011;68699;48.220;16.358;2023-05-10T10:11:59;1.60;;;1.50;;
79261;SDS011;68699;48.220;16.358;2023-05-10T10:14:25;1.80;;;1.70;;
79261;SDS011;68699;48.220;16.358;2023-05-10T10:16:51;2.20;;;1.70;;
79261;SDS011;68699;48.220;16.358;2023-05-10T10:19:18;3.13;;;1.60;;
79261;SDS011;68699;48.220;16.358;2023-05-10T10:21:45;2.03;;;1.50;;
79261;SDS011;68699;48.220;16.358;2023-05-10T10:24:11;1.50;;;1.40;;
79261;SDS011;68699;48.220;16.358;2023-05-10T10:26:37;1.70;;;1.60;;
79261;SDS011;68699;48.220;16.358;2023-05-10T10:31:41;2.20;;;1.60;;
79261;SDS011;68699;48.220;16.358;2023-05-10T10:34:10;1.70;;;1.60;;
79261;SDS011;68699;48.220;16.358;2023-05-10T10:36:44;1.97;;;1.47;;
79261;SDS011;68699;48.220;16.358;2023-05-10T10:39:10;2.20;;;1.87;;
79261;SDS011;68699;48.220;16.358;2023-05-10T10:41:37;1.70;;;1.60;;
79261;SDS011;68699;48.220;16.358;2023-05-10T10:52:25;1.73;;;1.63;;
79261;SDS011;68699;48.220;16.358;2023-05-10T11:00:19;3.17;;;1.53;;
79261;SDS011;68699;48.220;16.358;2023-05-10T11:02:46;2.60;;;1.80;;
79261;SDS011;68699;48.220;16.358;2023-05-10T11:07:52;1.83;;;1.70;;
79261;SDS011;68699;48.220;16.358;2023-05-10T11:10:19;3.20;;;1.80;;
79261;SDS011;68699;48.220;16.358;2023-05-10T11:13:04;2.03;;;1.87;;
79261;SDS011;68699;48.220;16.358;2023-05-10T11:15:35;1.87;;;1.70;;
79261;SDS011;68699;48.220;16.358;2023-05-10T11:23:18;5.10;;;1.80;;
79261;SDS011;68699;48.220;16.358;2023-05-10T11:25:45;2.23;;;1.50;;
79261;SDS011;68699;48.220;16.358;2023-05-10T11:28:12;2.17;;;1.60;;
79261;SDS011;68699;48.220;16.358;2023-05-10T11:30:38;2.00;;;1.80;;
79261;SDS011;68699;48.220;16.358;2023-05-10T11:33:05;2.60;;;1.70;;
79261;SDS011;68699;48.220;16.358;2023-05-10T11:35:31;2.33;;;1.80;;
79261;SDS011;68699;48.220;16.358;2023-05-10T11:38:02;2.03;;;1.83;;
79261;SDS011;68699;48.220;16.358;2023-05-10T11:40:30;1.70;;;1.60;;
79261;SDS011;68699;48.220;16.358;2023-05-10T11:42:56;2.80;;;1.53;;
79261;SDS011;68699;48.220;16.358;2023-05-10T11:45:23;4.17;;;1.80;;
79261;SDS011;68699;48.220;16.358;2023-05-10T11:47:49;5.57;;;1.70;;
79261;SDS011;68699;48.220;16.358;2023-05-10T11:50:16;1.67;;;1.57;;
79261;SDS011;68699;48.220;16.358;2023-05-10T11:52:42;1.90;;;1.67;;
79261;SDS011;68699;48.220;16.358;2023-05-10T11:55:08;1.80;;;1.53;;
79261;SDS011;68699;48.220;16.358;2023-05-10T11:57:35;1.97;;;1.60;;
79261;SDS011;68699;48.220;16.358;2023-05-10T12:00:03;1.53;;;1.40;;
79261;SDS011;68699;48.220;16.358;2023-05-10T12:02:30;2.30;;;1.83;;
79261;SDS011;68699;48.220;16.358;2023-05-10T12:04:56;1.70;;;1.60;;
79261;SDS011;68699;48.220;16.358;2023-05-10T12:07:22;2.47;;;1.63;;
79261;SDS011;68699;48.220;16.358;2023-05-10T12:10:07;1.50;;;1.40;;
79261;SDS011;68699;48.220;16.358;2023-05-10T12:12:40;1.97;;;1.73;;
79261;SDS011;68699;48.220;16.358;2023-05-10T12:15:19;2.37;;;1.60;;
79261;SDS011;68699;48.220;16.358;2023-05-10T12:17:45;1.70;;;1.40;;
79261;SDS011;68699;48.220;16.358;2023-05-10T12:22:44;1.60;;;1.50;;
79261;SDS011;68699;48.220;16.358;2023-05-10T12:25:10;4.13;;;1.60;;
79261;SDS011;68699;48.220;16.358;2023-05-10T12:27:36;6.10;;;1.80;;
79261;SDS011;68699;48.220;16.358;2023-05-10T12:30:02;1.90;;;1.57;;
79261;SDS011;68699;48.220;16.358;2023-05-10T12:32:38;1.97;;;1.30;;
79261;SDS011;68699;48.220;16.358;2023-05-10T12:35:04;2.50;;;1.50;;
79261;SDS011;68699;48.220;16.358;2023-05-10T12:37:30;3.60;;;1.73;;
79261;SDS011;68699;48.220;16.358;2023-05-10T12:40:00;1.73;;;1.60;;
79261;SDS011;68699;48.220;16.358;2023-05-10T12:42:27;2.00;;;1.80;;
79261;SDS011;68699;48.220;16.358;2023-05-10T12:44:55;2.00;;;1.40;;
79261;SDS011;68699;48.220;16.358;2023-05-10T12:47:21;1.60;;;1.50;;
79261;SDS011;68699;48.220;16.358;2023-05-10T12:49:47;1.43;;;1.33;;
79261;SDS011;68699;48.220;16.358;2023-05-10T12:52:13;2.20;;;1.30;;
79261;SDS011;68699;48.220;16.358;2023-05-10T12:54:39;2.33;;;1.70;;
79261;SDS011;68699;48.220;16.358;2023-05-10T12:57:05;4.00;;;1.90;;
79261;SDS011;68699;48.220;16.358;2023-05-10T12:59:31;2.87;;;1.83;;
79261;SDS011;68699;48.220;16.358;2023-05-10T13:01:57;4.00;;;1.90;;
79261;SDS011;68699;48.220;16.358;2023-05-10T13:04:23;2.80;;;1.90;;
79261;SDS011;68699;48.220;16.358;2023-05-10T13:06:49;2.00;;;1.90;;
79261;SDS011;68699;48.220;16.358;2023-05-10T13:09:15;2.50;;;2.17;;
79261;SDS011;68699;48.220;16.358;2023-05-10T13:11:41;2.40;;;2.20;;
79261;SDS011;68699;48.220;16.358;2023-05-10T13:14:08;3.53;;;1.90;;
79261;SDS011;68699;48.220;16.358;2023-05-10T13:16:33;2.80;;;2.00;;
79261;SDS011;68699;48.220;16.358;2023-05-10T13:19:00;2.10;;;2.00;;
79261;SDS011;68699;48.220;16.358;2023-05-10T13:21:26;2.00;;;1.80;;
79261;SDS011;68699;48.220;16.358;2023-05-10T13:23:52;2.07;;;1.90;;
79261;SDS011;68699;48.220;16.358;2023-05-10T13:26:18;3.67;;;2.13;;
79261;SDS011;68699;48.220;16.358;2023-05-10T13:28:45;2.70;;;1.80;;
79261;SDS011;68699;48.220;16.358;2023-05-10T13:31:11;3.73;;;2.10;;
79261;SDS011;68699;48.220;16.358;2023-05-10T13:33:37;3.43;;;2.20;;
79261;SDS011;68699;48.220;16.358;2023-05-10T13:36:03;4.40;;;2.33;;
79261;SDS011;68699;48.220;16.358;2023-05-10T13:38:29;3.60;;;2.20;;
79261;SDS011;68699;48.220;16.358;2023-05-10T13:40:55;2.30;;;2.10;;
79261;SDS011;68699;48.220;16.358;2023-05-10T13:43:21;4.07;;;2.10;;
79261;SDS011;68699;48.220;16.358;2023-05-10T13:45:47;3.03;;;1.90;;
79261;SDS011;68699;48.220;16.358;2023-05-10T13:48:13;3.50;;;2.00;;
79261;SDS011;68699;48.220;16.358;2023-05-10T13:50:40;2.40;;;2.20;;
79261;SDS011;68699;48.220;16.358;2023-05-10T13:53:06;3.77;;;2.07;;
79261;SDS011;68699;48.220;16.358;2023-05-10T13:55:31;2.83;;;1.93;;
79261;SDS011;68699;48.220;16.358;2023-05-10T13:57:58;3.50;;;1.90;;
79261;SDS011;68699;48.220;16.358;2023-05-10T14:00:24;3.07;;;2.37;;
79261;SDS011;68699;48.220;16.358;2023-05-10T14:02:50;3.73;;;2.07;;
79261;SDS011;68699;48.220;16.358;2023-05-10T14:05:16;3.57;;;2.10;;
79261;SDS011;68699;48.220;16.358;2023-05-10T14:07:42;2.10;;;1.90;;
79261;SDS011;68699;48.220;16.358;2023-05-10T14:10:08;1.93;;;1.83;;
79261;SDS011;68699;48.220;16.358;2023-05-10T14:12:34;2.77;;;1.70;;
79261;SDS011;68699;48.220;16.358;2023-05-10T14:15:01;2.07;;;1.80;;
79261;SDS011;68699;48.220;16.358;2023-05-10T14:20:10;4.07;;;2.00;;
79261;SDS011;68699;48.220;16.358;2023-05-10T14:23:02;1.83;;;1.70;;
79261;SDS011;68699;48.220;16.358;2023-05-10T14:25:50;1.80;;;1.70;;
79261;SDS011;68699;48.220;16.358;2023-05-10T14:28:16;2.17;;;1.90;;
79261;SDS011;68699;48.220;16.358;2023-05-10T14:30:51;3.20;;;1.87;;
79261;SDS011;68699;48.220;16.358;2023-05-10T14:33:34;1.80;;;1.70;;
79261;SDS011;68699;48.220;16.358;2023-05-10T14:36:03;1.90;;;1.80;;
79261;SDS011;68699;48.220;16.358;2023-05-10T14:38:32;1.90;;;1.63;;
79261;SDS011;68699;48.220;16.358;2023-05-10T14:40:58;3.43;;;2.10;;
79261;SDS011;68699;48.220;16.358;2023-05-10T14:43:24;2.10;;;2.00;;
79261;SDS011;68699;48.220;16.358;2023-05-10T14:45:52;3.87;;;1.80;;
79261;SDS011;68699;48.220;16.358;2023-05-10T14:48:18;2.37;;;1.80;;
79261;SDS011;68699;48.220;16.358;2023-05-10T14:50:49;2.00;;;1.80;;
79261;SDS011;68699;48.220;16.358;2023-05-10T14:53:15;2.90;;;1.83;;
79261;SDS011;68699;48.220;16.358;2023-05-10T14:55:41;2.10;;;1.60;;
79261;SDS011;68699;48.220;16.358;2023-05-10T14:58:07;2.07;;;1.80;;
79261;SDS011;68699;48.220;16.358;2023-05-10T15:00:53;1.70;;;1.60;;
79261;SDS011;68699;48.220;16.358;2023-05-10T15:03:19;1.60;;;1.50;;
79261;SDS011;68699;48.220;16.358;2023-05-10T15:05:46;2.73;;;1.60;;
79261;SDS011;68699;48.220;16.358;2023-05-10T15:08:12;1.80;;;1.70;;
79261;SDS011;68699;48.220;16.358;2023-05-10T15:10:39;1.57;;;1.47;;
79261;SDS011;68699;48.220;16.358;2023-05-10T15:13:05;2.97;;;1.40;;
79261;SDS011;68699;48.220;16.358;2023-05-10T15:15:31;3.47;;;1.40;;
79261;SDS011;68699;48.220;16.358;2023-05-10T15:17:57;1.53;;;1.40;;
79261;SDS011;68699;48.220;16.358;2023-05-10T15:20:23;3.83;;;1.47;;